createdAt,value
2018-02-19T00:00:42.398Z,4.62
2018-02-19T00:03:10.728Z,4.75
2018-02-19T00:05:39.088Z,4.85
2018-02-19T00:08:07.353Z,4.90
2018-02-19T00:10:35.668Z,4.85
2018-02-19T00:13:04.006Z,4.84
2018-02-19T00:15:32.294Z,4.77
2018-02-19T00:18:00.592Z,4.70
2018-02-19T00:20:28.930Z,4.63
2018-02-19T00:22:57.204Z,4.70
2018-02-19T00:25:25.525Z,4.76
2018-02-19T00:27:53.781Z,4.85
2018-02-19T00:30:22.072Z,4.79
2018-02-19T00:32:50.348Z,4.84
2018-02-19T00:35:18.648Z,4.95
2018-02-19T00:37:46.935Z,4.83
2018-02-19T00:40:15.228Z,4.94
2018-02-19T00:42:43.517Z,4.99
2018-02-19T00:45:12.098Z,4.82
2018-02-19T00:47:40.383Z,4.82
2018-02-19T00:50:08.692Z,4.81
2018-02-19T00:52:37.073Z,4.81
2018-02-19T00:55:05.420Z,4.83
2018-02-19T00:57:33.744Z,4.81
2018-02-19T01:00:02.019Z,4.80
2018-02-19T01:02:30.337Z,4.76
2018-02-19T01:04:58.633Z,4.87
2018-02-19T01:07:26.904Z,4.80
2018-02-19T01:09:55.178Z,4.82
2018-02-19T01:12:23.690Z,4.82
2018-02-19T01:14:52.006Z,4.87
2018-02-19T01:17:20.392Z,4.83
2018-02-19T01:19:48.987Z,4.81
2018-02-19T01:22:17.270Z,4.66
2018-02-19T01:24:45.564Z,4.63
2018-02-19T01:27:14.327Z,4.62
2018-02-19T01:29:42.626Z,4.71
2018-02-19T01:32:10.903Z,4.76
2018-02-19T01:34:39.244Z,4.81
2018-02-19T01:37:07.535Z,4.81
2018-02-19T01:39:35.854Z,4.74
2018-02-19T01:42:04.517Z,4.68
2018-02-19T01:44:32.850Z,4.78
2018-02-19T01:47:01.151Z,4.59
2018-02-19T01:49:29.456Z,4.62
2018-02-19T01:51:57.771Z,4.63
2018-02-19T01:54:26.392Z,4.55
2018-02-19T01:56:54.686Z,4.63
2018-02-19T01:59:23.048Z,4.59
2018-02-19T02:01:51.541Z,4.67
2018-02-19T02:04:19.816Z,4.70
2018-02-19T02:06:48.120Z,4.61
2018-02-19T02:09:16.374Z,4.62
2018-02-19T02:11:44.675Z,4.51
2018-02-19T02:14:12.984Z,4.36
2018-02-19T02:16:41.289Z,4.28
2018-02-19T02:19:09.552Z,4.39
2018-02-19T02:21:37.862Z,4.46
2018-02-19T02:24:06.124Z,4.37
2018-02-19T02:26:34.432Z,4.35
2018-02-19T02:29:02.706Z,4.40
2018-02-19T02:31:31.031Z,4.27
2018-02-19T02:33:59.287Z,4.33
2018-02-19T02:36:27.632Z,4.36
2018-02-19T02:38:55.963Z,4.45
2018-02-19T02:41:24.245Z,4.40
2018-02-19T02:43:52.538Z,4.31
2018-02-19T02:46:20.815Z,4.13
2018-02-19T02:48:49.120Z,4.22
2018-02-19T02:51:17.463Z,4.35
2018-02-19T02:53:45.828Z,4.52
2018-02-19T02:56:14.147Z,4.59
2018-02-19T02:58:42.399Z,4.58
2018-02-19T03:01:10.676Z,4.63
2018-02-19T03:03:39.004Z,4.67
2018-02-19T03:06:07.288Z,4.57
2018-02-19T03:08:35.598Z,4.37
2018-02-19T03:11:04.624Z,4.46
2018-02-19T03:13:32.990Z,4.54
2018-02-19T03:16:01.281Z,4.48
2018-02-19T03:18:29.569Z,4.53
2018-02-19T03:20:58.186Z,4.59
2018-02-19T03:23:26.497Z,4.61
2018-02-19T03:25:54.775Z,4.63
2018-02-19T03:28:23.054Z,4.63
2018-02-19T03:30:51.375Z,4.60
2018-02-19T03:33:19.655Z,4.46
2018-02-19T03:35:48.047Z,4.51
2018-02-19T03:38:16.326Z,4.53
2018-02-19T03:40:44.660Z,4.56
2018-02-19T03:43:12.984Z,4.54
2018-02-19T03:45:41.334Z,4.63
2018-02-19T03:48:09.637Z,4.71
2018-02-19T03:50:37.938Z,4.72
2018-02-19T03:53:06.327Z,4.70
2018-02-19T03:55:34.648Z,4.71
2018-02-19T03:58:03.324Z,4.69
2018-02-19T04:00:31.650Z,4.71
2018-02-19T04:02:59.932Z,4.62
2018-02-19T04:05:28.212Z,4.51
2018-02-19T04:07:56.579Z,4.62
2018-02-19T04:10:24.867Z,4.63
2018-02-19T04:12:53.187Z,4.53
2018-02-19T04:15:21.427Z,4.44
2018-02-19T04:17:49.771Z,4.33
2018-02-19T04:20:18.027Z,4.37
2018-02-19T04:22:46.344Z,4.50
2018-02-19T04:25:14.621Z,4.43
2018-02-19T04:27:42.968Z,4.47
2018-02-19T04:30:11.273Z,4.45
2018-02-19T04:32:39.595Z,4.47
2018-02-19T04:35:07.860Z,4.49
2018-02-19T04:37:36.184Z,4.56
2018-02-19T04:40:05.207Z,4.54
2018-02-19T04:42:33.507Z,4.52
2018-02-19T04:48:05.365Z,4.70
2018-02-19T04:50:34.396Z,4.61
2018-02-19T04:53:02.737Z,4.56
2018-02-19T04:55:31.009Z,4.53
2018-02-19T04:58:00.055Z,4.51
2018-02-19T05:00:28.369Z,4.62
2018-02-19T05:02:56.678Z,4.61
2018-02-19T05:05:24.976Z,4.59
2018-02-19T05:07:53.262Z,4.59
2018-02-19T05:10:21.631Z,4.61
2018-02-19T05:12:50.140Z,4.66
2018-02-19T05:15:18.463Z,4.65
2018-02-19T05:17:46.772Z,4.65
2018-02-19T05:20:15.118Z,4.64
2018-02-19T05:22:43.391Z,4.65
2018-02-19T05:25:12.491Z,4.65
2018-02-19T05:27:40.764Z,4.61
2018-02-19T05:30:09.217Z,4.66
2018-02-19T05:32:37.493Z,4.65
2018-02-19T05:35:05.817Z,4.67
2018-02-19T05:37:34.184Z,4.65
2018-02-19T05:40:02.448Z,4.61
2018-02-19T05:42:30.762Z,4.67
2018-02-19T05:44:59.062Z,4.68
2018-02-19T05:47:27.412Z,4.62
2018-02-19T05:49:55.718Z,4.53
2018-02-19T05:52:24.032Z,4.43
2018-02-19T05:54:52.302Z,4.56
2018-02-19T05:57:20.651Z,4.62
2018-02-19T05:59:48.899Z,4.60
2018-02-19T06:02:17.222Z,4.68
2018-02-19T06:04:45.508Z,4.69
2018-02-19T06:07:13.834Z,4.77
2018-02-19T06:09:42.102Z,4.76
2018-02-19T06:12:10.381Z,4.75
2018-02-19T06:14:38.684Z,4.64
2018-02-19T06:17:06.988Z,4.70
2018-02-19T06:19:35.273Z,4.75
2018-02-19T06:22:03.576Z,4.75
2018-02-19T06:24:31.913Z,4.67
2018-02-19T06:27:00.287Z,4.59
2018-02-19T06:29:28.569Z,4.63
2018-02-19T06:31:56.940Z,4.93
2018-02-19T06:34:25.216Z,4.81
2018-02-19T06:36:53.499Z,4.74
2018-02-19T06:39:21.828Z,4.72
2018-02-19T06:41:50.119Z,4.56
2018-02-19T06:44:18.408Z,4.67
2018-02-19T06:46:46.687Z,4.56
2018-02-19T06:49:14.987Z,4.56
2018-02-19T06:51:44.181Z,4.61
2018-02-19T06:54:12.537Z,4.61
2018-02-19T06:56:40.804Z,4.50
2018-02-19T06:59:09.077Z,4.73
2018-02-19T07:01:37.382Z,4.90
2018-02-19T07:04:05.683Z,4.79
2018-02-19T07:06:33.982Z,4.80
2018-02-19T07:09:02.545Z,4.85
2018-02-19T07:11:30.905Z,4.81
2018-02-19T07:13:59.206Z,4.76
2018-02-19T07:16:27.510Z,4.57
2018-02-19T07:18:55.863Z,4.63
2018-02-19T07:21:24.236Z,4.83
2018-02-19T07:23:52.558Z,5.04
2018-02-19T07:26:20.867Z,5.15
2018-02-19T07:28:49.160Z,5.07
2018-02-19T07:31:17.510Z,4.92
2018-02-19T07:33:45.784Z,4.87
2018-02-19T07:36:14.145Z,4.90
2018-02-19T07:38:42.449Z,4.89
2018-02-19T07:41:11.033Z,4.86
2018-02-19T07:43:39.363Z,4.93
2018-02-19T07:46:07.734Z,4.92
2018-02-19T07:48:36.480Z,4.91
2018-02-19T07:51:05.402Z,4.92
2018-02-19T07:53:33.685Z,4.93
2018-02-19T07:56:02.849Z,5.01
2018-02-19T07:58:31.156Z,4.97
2018-02-19T08:01:00.292Z,5.04
2018-02-19T08:03:28.646Z,5.02
2018-02-19T08:05:57.144Z,5.10
2018-02-19T08:08:25.703Z,5.04
2018-02-19T08:10:54.000Z,5.09
2018-02-19T08:13:22.282Z,5.20
2018-02-19T08:15:50.649Z,5.42
2018-02-19T08:18:19.094Z,5.30
2018-02-19T08:20:49.088Z,5.22
2018-02-19T08:23:17.469Z,5.38
2018-02-19T08:25:46.420Z,5.42
2018-02-19T08:28:14.761Z,5.42
2018-02-19T08:30:43.284Z,5.37
2018-02-19T08:33:11.629Z,5.43
2018-02-19T08:35:39.943Z,5.48
2018-02-19T08:38:08.285Z,5.46
2018-02-19T08:40:36.621Z,5.51
2018-02-19T08:43:04.906Z,5.45
2018-02-19T08:45:33.668Z,5.51
2018-02-19T08:48:02.994Z,5.53
2018-02-19T08:50:31.288Z,5.39
2018-02-19T08:52:59.774Z,5.56
2018-02-19T08:55:28.042Z,5.49
2018-02-19T08:57:56.571Z,5.40
2018-02-19T09:00:24.894Z,5.38
2018-02-19T09:02:53.193Z,5.44
2018-02-19T09:05:21.604Z,5.59
2018-02-19T09:07:49.924Z,5.55
2018-02-19T09:10:18.208Z,5.47
2018-02-19T09:12:46.520Z,5.51
2018-02-19T09:15:14.813Z,5.38
2018-02-19T09:17:43.574Z,5.27
2018-02-19T09:20:12.406Z,5.09
2018-02-19T09:22:40.799Z,5.16
2018-02-19T09:25:09.167Z,5.21
2018-02-19T09:27:38.397Z,5.42
2018-02-19T09:30:07.211Z,5.28
2018-02-19T09:32:35.662Z,5.32
2018-02-19T09:35:06.200Z,5.34
2018-02-19T09:37:36.167Z,5.34
2018-02-19T09:40:05.250Z,5.29
2018-02-19T09:42:35.211Z,5.36
2018-02-19T09:45:03.518Z,5.34
2018-02-19T09:47:31.824Z,5.62
2018-02-19T09:50:00.140Z,5.53
2018-02-19T09:52:28.442Z,5.42
2018-02-19T09:54:56.745Z,5.67
2018-02-19T09:57:25.079Z,5.82
2018-02-19T09:59:53.382Z,5.91
2018-02-19T10:02:21.684Z,5.79
2018-02-19T10:04:50.017Z,5.72
2018-02-19T10:07:18.657Z,5.78
2018-02-19T10:09:47.027Z,5.69
2018-02-19T10:12:15.356Z,5.57
2018-02-19T10:14:43.655Z,5.53
2018-02-19T10:17:12.004Z,5.73
2018-02-19T10:19:40.363Z,5.72
2018-02-19T10:22:08.674Z,5.93
2018-02-19T10:24:36.953Z,5.98
2018-02-19T10:27:05.636Z,6.00
2018-02-19T10:29:33.961Z,6.01
2018-02-19T10:32:02.298Z,5.84
2018-02-19T10:34:31.361Z,5.96
2018-02-19T10:37:00.116Z,5.80
2018-02-19T10:39:28.456Z,5.72
2018-02-19T10:41:56.735Z,5.84
2018-02-19T10:44:25.071Z,5.86
2018-02-19T10:46:53.384Z,5.78
2018-02-19T10:49:21.704Z,5.98
2018-02-19T10:51:49.998Z,6.08
2018-02-19T10:54:18.325Z,5.98
2018-02-19T10:56:46.647Z,5.84
2018-02-19T10:59:14.941Z,5.74
2018-02-19T11:01:43.275Z,5.75
2018-02-19T11:04:19.359Z,5.93
2018-02-19T11:06:48.638Z,5.87
2018-02-19T11:09:16.995Z,5.63
2018-02-19T11:11:45.348Z,5.51
2018-02-19T11:14:13.604Z,5.60
2018-02-19T11:16:41.919Z,5.60
2018-02-19T11:19:10.267Z,5.74
2018-02-19T11:21:38.616Z,5.80
2018-02-19T11:24:06.917Z,5.83
2018-02-19T11:26:35.256Z,5.74
2018-02-19T11:29:03.589Z,5.68
2018-02-19T11:31:31.978Z,5.72
2018-02-19T11:34:00.296Z,5.80
2018-02-19T11:36:28.588Z,5.75
2018-02-19T11:38:56.982Z,5.71
2018-02-19T11:41:25.402Z,5.64
2018-02-19T11:43:53.671Z,5.67
2018-02-19T11:46:21.977Z,5.58
2018-02-19T11:48:50.288Z,5.63
2018-02-19T11:51:18.622Z,5.70
2018-02-19T11:53:47.151Z,5.65
2018-02-19T11:56:15.501Z,5.76
2018-02-19T11:58:43.832Z,5.88
2018-02-19T12:01:12.108Z,5.86
2018-02-19T12:03:40.494Z,5.72
2018-02-19T12:06:09.080Z,5.75
2018-02-19T12:08:37.345Z,5.83
2018-02-19T12:11:05.620Z,5.79
2018-02-19T12:13:33.976Z,5.81
2018-02-19T12:16:02.297Z,5.85
2018-02-19T12:18:30.556Z,5.96
2018-02-19T12:21:00.342Z,6.02
2018-02-19T12:23:28.702Z,6.02
2018-02-19T12:25:57.093Z,6.07
2018-02-19T12:28:25.474Z,6.09
2018-02-19T12:30:53.783Z,6.00
2018-02-19T12:33:22.087Z,5.95
2018-02-19T12:35:50.341Z,5.90
2018-02-19T12:38:18.623Z,5.92
2018-02-19T12:40:46.947Z,5.93
2018-02-19T12:43:15.304Z,5.87
2018-02-19T12:45:43.669Z,5.99
2018-02-19T12:48:11.997Z,6.09
2018-02-19T12:50:40.303Z,6.02
2018-02-19T12:53:08.616Z,5.96
2018-02-19T12:55:36.945Z,5.94
2018-02-19T12:58:05.263Z,5.90
2018-02-19T13:00:33.536Z,5.98
2018-02-19T13:03:01.845Z,5.82
2018-02-19T13:05:30.154Z,5.82
2018-02-19T13:07:58.568Z,5.99
2018-02-19T13:10:26.899Z,6.15
2018-02-19T13:12:55.202Z,6.22
2018-02-19T13:15:23.581Z,6.10
2018-02-19T13:17:51.857Z,6.12
2018-02-19T13:20:20.274Z,5.97
2018-02-19T13:22:48.579Z,6.14
2018-02-19T13:25:16.898Z,6.09
2018-02-19T13:27:45.287Z,6.08
2018-02-19T13:30:13.592Z,6.13
2018-02-19T13:32:41.898Z,6.22
2018-02-19T13:35:10.200Z,6.25
2018-02-19T13:37:39.418Z,6.01
2018-02-19T13:40:07.696Z,6.19
2018-02-19T13:42:36.098Z,6.21
2018-02-19T13:45:04.397Z,6.23
2018-02-19T13:47:33.146Z,6.20
2018-02-19T13:50:01.677Z,6.43
2018-02-19T13:52:29.950Z,6.46
2018-02-19T13:54:58.279Z,6.46
2018-02-19T13:57:26.560Z,6.28
2018-02-19T13:59:54.906Z,6.29
2018-02-19T14:02:23.251Z,6.26
2018-02-19T14:04:51.550Z,6.21
2018-02-19T14:07:19.886Z,6.14
2018-02-19T14:09:48.181Z,6.20
2018-02-19T14:12:16.490Z,6.21
2018-02-19T14:14:44.801Z,6.19
2018-02-19T14:17:13.123Z,6.13
2018-02-19T14:19:41.451Z,6.25
2018-02-19T14:22:09.759Z,6.36
2018-02-19T14:24:38.044Z,6.45
2018-02-19T14:27:06.334Z,6.50
2018-02-19T14:29:35.495Z,6.47
2018-02-19T14:32:04.751Z,6.28
2018-02-19T14:34:33.073Z,6.35
2018-02-19T14:37:01.534Z,6.36
2018-02-19T14:39:29.909Z,6.20
2018-02-19T14:41:58.346Z,6.22
2018-02-19T14:44:26.766Z,6.19
2018-02-19T14:46:55.763Z,6.17
2018-02-19T14:49:24.105Z,6.17
2018-02-19T14:51:52.531Z,6.28
2018-02-19T14:54:20.910Z,6.13
2018-02-19T14:56:50.095Z,6.25
2018-02-19T14:59:18.404Z,6.27
2018-02-19T15:01:47.050Z,6.16
2018-02-19T15:04:15.393Z,6.08
2018-02-19T15:06:43.767Z,6.05
2018-02-19T15:09:12.899Z,6.17
2018-02-19T15:11:41.395Z,6.17
2018-02-19T15:14:09.741Z,6.16
2018-02-19T15:16:38.136Z,5.96
2018-02-19T15:19:06.453Z,6.00
2018-02-19T15:21:34.840Z,6.01
2018-02-19T15:24:03.449Z,5.94
2018-02-19T15:26:32.025Z,5.90
2018-02-19T15:29:00.389Z,5.85
2018-02-19T15:31:28.739Z,5.90
2018-02-19T15:33:57.064Z,5.94
2018-02-19T15:36:25.522Z,5.94
2018-02-19T15:38:53.875Z,6.08
2018-02-19T15:41:22.200Z,6.11
2018-02-19T15:43:50.518Z,6.07
2018-02-19T15:46:18.850Z,6.11
2018-02-19T15:48:47.612Z,6.06
2018-02-19T15:51:15.870Z,6.07
2018-02-19T15:53:44.840Z,6.05
2018-02-19T15:56:13.193Z,6.08
2018-02-19T15:58:41.464Z,6.01
2018-02-19T16:01:09.786Z,5.97
2018-02-19T16:03:38.153Z,5.90
2018-02-19T16:06:06.436Z,5.86
2018-02-19T16:08:34.777Z,5.86
2018-02-19T16:11:03.096Z,5.76
2018-02-19T16:13:31.433Z,5.81
2018-02-19T16:15:59.917Z,5.82
2018-02-19T16:18:28.412Z,5.85
2018-02-19T16:20:56.736Z,5.72
2018-02-19T16:23:25.122Z,5.80
2018-02-19T16:25:54.397Z,5.77
2018-02-19T16:28:22.729Z,5.67
2018-02-19T16:30:51.064Z,5.77
2018-02-19T16:33:19.995Z,5.77
2018-02-19T16:35:48.403Z,5.66
2018-02-19T16:38:16.686Z,5.56
2018-02-19T16:40:45.009Z,5.50
2018-02-19T16:43:13.379Z,5.55
2018-02-19T16:45:41.733Z,5.62
2018-02-19T16:48:10.016Z,5.55
2018-02-19T16:50:38.384Z,5.59
2018-02-19T16:53:07.674Z,5.58
2018-02-19T16:55:36.221Z,5.65
2018-02-19T16:58:05.246Z,5.62
2018-02-19T17:00:33.527Z,5.66
2018-02-19T17:03:01.848Z,5.52
2018-02-19T17:05:30.161Z,5.46
2018-02-19T17:07:58.598Z,5.45
2018-02-19T17:10:26.970Z,5.53
2018-02-19T17:12:55.328Z,5.48
2018-02-19T17:15:23.642Z,5.63
2018-02-19T17:17:51.920Z,5.60
2018-02-19T17:20:20.212Z,5.62
2018-02-19T17:22:48.534Z,5.67
2018-02-19T17:25:16.841Z,5.73
2018-02-19T17:27:45.111Z,5.64
2018-02-19T17:30:13.454Z,5.49
2018-02-19T17:32:41.741Z,5.35
2018-02-19T17:35:10.445Z,5.44
2018-02-19T17:37:38.789Z,5.45
2018-02-19T17:40:07.073Z,5.43
2018-02-19T17:42:35.388Z,5.46
2018-02-19T17:45:03.667Z,5.36
2018-02-19T17:47:32.028Z,5.43
2018-02-19T17:50:00.293Z,5.45
2018-02-19T17:52:28.588Z,5.47
2018-02-19T17:54:56.923Z,5.41
2018-02-19T17:57:25.217Z,5.36
2018-02-19T17:59:53.481Z,5.37
2018-02-19T18:02:21.908Z,5.25
2018-02-19T18:04:50.202Z,5.24
2018-02-19T18:07:18.545Z,5.21
2018-02-19T18:09:46.841Z,5.20
2018-02-19T18:12:15.127Z,5.25
2018-02-19T18:14:43.427Z,5.24
2018-02-19T18:17:11.763Z,5.11
2018-02-19T18:19:40.221Z,5.07
2018-02-19T18:22:08.516Z,4.98
2018-02-19T18:24:36.791Z,5.24
2018-02-19T18:27:05.123Z,5.02
2018-02-19T18:29:33.398Z,4.96
2018-02-19T18:32:01.697Z,5.01
2018-02-19T18:34:30.008Z,4.92
2018-02-19T18:36:58.337Z,5.00
2018-02-19T18:39:26.658Z,5.11
2018-02-19T18:41:54.961Z,4.91
2018-02-19T18:44:23.260Z,4.87
2018-02-19T18:46:51.583Z,4.91
2018-02-19T18:49:19.869Z,5.00
2018-02-19T18:51:48.192Z,4.98
2018-02-19T18:54:16.473Z,5.05
2018-02-19T18:56:44.784Z,5.05
2018-02-19T18:59:13.245Z,5.06
2018-02-19T19:01:41.522Z,5.06
2018-02-19T19:04:10.681Z,5.01
2018-02-19T19:06:38.971Z,4.99
2018-02-19T19:09:19.974Z,4.98
2018-02-19T19:11:48.275Z,4.88
2018-02-19T19:14:16.605Z,4.90
2018-02-19T19:16:45.851Z,5.00
2018-02-19T19:19:14.185Z,5.15
2018-02-19T19:21:43.276Z,5.08
2018-02-19T19:24:11.577Z,5.15
2018-02-19T19:26:39.853Z,5.18
2018-02-19T19:29:08.156Z,5.25
2018-02-19T19:31:36.489Z,5.19
2018-02-19T19:34:05.674Z,5.19
2018-02-19T19:36:33.951Z,5.29
2018-02-19T19:39:02.381Z,5.27
2018-02-19T19:41:30.676Z,5.33
2018-02-19T19:43:58.953Z,5.24
2018-02-19T19:46:27.263Z,5.22
2018-02-19T19:48:55.653Z,5.35
2018-02-19T19:51:23.972Z,5.45
2018-02-19T19:53:52.296Z,5.41
2018-02-19T19:56:20.606Z,5.40
2018-02-19T19:58:48.884Z,5.41
2018-02-19T20:01:17.197Z,5.38
2018-02-19T20:03:45.486Z,5.45
2018-02-19T20:06:13.797Z,5.38
2018-02-19T20:08:42.099Z,5.42
2018-02-19T20:11:11.209Z,5.36
2018-02-19T20:13:39.510Z,5.31
2018-02-19T20:16:07.785Z,5.30
2018-02-19T20:18:36.086Z,5.25
2018-02-19T20:21:04.370Z,5.23
2018-02-19T20:23:32.676Z,5.16
2018-02-19T20:26:00.956Z,5.23
2018-02-19T20:28:29.246Z,5.16
2018-02-19T20:30:57.544Z,5.31
2018-02-19T20:33:25.862Z,5.37
2018-02-19T20:35:54.139Z,5.37
2018-02-19T20:38:22.505Z,5.42
2018-02-19T20:40:50.823Z,5.35
2018-02-19T20:43:19.989Z,5.26
2018-02-19T20:45:48.301Z,5.30
2018-02-19T20:48:16.811Z,5.23
2018-02-19T20:50:45.135Z,5.26
2018-02-19T20:53:13.451Z,5.28
2018-02-19T20:55:41.771Z,5.22
2018-02-19T20:58:10.060Z,5.18
2018-02-19T21:00:38.369Z,5.22
2018-02-19T21:03:06.680Z,5.40
2018-02-19T21:05:35.025Z,5.35
2018-02-19T21:08:03.421Z,5.17
2018-02-19T21:10:31.726Z,5.13
2018-02-19T21:13:00.069Z,5.09
2018-02-19T21:15:28.392Z,5.20
2018-02-19T21:17:56.651Z,5.10
2018-02-19T21:20:24.948Z,5.08
2018-02-19T21:22:53.282Z,5.12
2018-02-19T21:25:21.560Z,4.87
2018-02-19T21:27:49.887Z,4.79
2018-02-19T21:30:18.155Z,4.84
2018-02-19T21:32:46.457Z,4.57
2018-02-19T21:35:14.724Z,4.49
2018-02-19T21:37:43.059Z,4.52
2018-02-19T21:40:11.337Z,4.57
2018-02-19T21:42:39.651Z,4.71
2018-02-19T21:45:07.948Z,4.71
2018-02-19T21:47:36.264Z,4.70
2018-02-19T21:50:05.138Z,4.65
2018-02-19T21:52:33.495Z,4.62
2018-02-19T21:55:01.823Z,4.56
2018-02-19T21:57:30.099Z,4.47
2018-02-19T21:59:58.471Z,4.32
2018-02-19T22:02:26.958Z,4.06
2018-02-19T22:04:55.263Z,4.18
2018-02-19T22:07:23.602Z,4.36
2018-02-19T22:09:51.966Z,4.42
2018-02-19T22:12:20.238Z,4.49
2018-02-19T22:14:48.612Z,4.49
2018-02-19T22:17:16.884Z,4.50
2018-02-19T22:19:45.236Z,4.46
2018-02-19T22:22:13.537Z,4.43
2018-02-19T22:24:41.871Z,4.44
2018-02-19T22:27:10.175Z,4.43
2018-02-19T22:29:38.448Z,4.40
2018-02-19T22:32:06.750Z,4.36
2018-02-19T22:34:35.011Z,4.39
2018-02-19T22:37:03.321Z,4.42
2018-02-19T22:39:31.597Z,4.44
2018-02-19T22:41:59.918Z,4.52
2018-02-19T22:44:28.171Z,4.56
2018-02-19T22:46:56.477Z,4.45
2018-02-19T22:49:24.750Z,4.34
2018-02-19T22:51:53.112Z,4.39
2018-02-19T22:54:21.415Z,4.37
2018-02-19T22:56:49.681Z,4.31
2018-02-19T22:59:17.991Z,4.34
2018-02-19T23:01:46.286Z,4.37
2018-02-19T23:04:15.063Z,4.27
2018-02-19T23:06:43.367Z,4.14
2018-02-19T23:09:11.732Z,4.17
2018-02-19T23:11:40.018Z,4.19
2018-02-19T23:14:08.345Z,4.26
2018-02-19T23:16:36.599Z,4.32
2018-02-19T23:19:04.920Z,4.29
2018-02-19T23:21:33.209Z,4.32
2018-02-19T23:24:01.503Z,4.32
2018-02-19T23:26:29.800Z,4.32
2018-02-19T23:28:58.219Z,4.36
2018-02-19T23:31:27.057Z,4.34
2018-02-19T23:33:55.344Z,4.23
2018-02-19T23:36:23.659Z,4.25
2018-02-19T23:38:51.942Z,4.31
2018-02-19T23:41:20.265Z,4.33
2018-02-19T23:43:49.346Z,4.27
2018-02-19T23:46:17.673Z,4.28
2018-02-19T23:48:45.931Z,4.29
2018-02-19T23:51:14.429Z,4.33
2018-02-19T23:53:42.704Z,4.29
2018-02-19T23:56:11.000Z,4.22
2018-02-19T23:58:39.307Z,4.22
